Time;durP1;ratioP1;P1;durP2;ratioP2;P2;SDS_P1;SDS_P2;PMS_P1;PMS_P2;Temp;Humidity;BMP_temperature;BMP_pressure;BME280_temperature;BME280_humidity;BME280_pressure;Samples;Min_cycle;Max_cycle;Signal;HPM_P1;HPM_P2
2022/05/26 04:30:17;;;;;;;3.90;3.17;;;16.40;99.90;;;;;;6038216;23;20515;-75
2022/05/26 04:32:43;;;;;;;10.60;3.70;;;16.30;99.90;;;;;;4975512;28;20464;-76
2022/05/26 04:35:09;;;;;;;4.20;3.60;;;16.30;99.90;;;;;;4976648;28;20188;-76
2022/05/26 04:37:35;;;;;;;7.77;3.43;;;16.30;99.90;;;;;;4976447;28;20185;-76
2022/05/26 04:40:02;;;;;;;5.60;3.93;;;16.20;99.90;;;;;;4976608;28;20437;-77
2022/05/26 04:42:29;;;;;;;7.80;3.87;;;16.10;99.90;;;;;;4976258;28;20469;-77
2022/05/26 04:44:55;;;;;;;6.23;3.33;;;16.10;99.90;;;;;;4976376;28;20433;-77
2022/05/26 04:47:21;;;;;;;6.57;3.60;;;16.00;99.90;;;;;;4975512;28;20572;-77
2022/05/26 04:49:46;;;;;;;3.67;3.20;;;16.00;99.90;;;;;;4976344;28;20178;-77
2022/05/26 04:52:15;;;;;;;4.90;3.60;;;15.90;99.90;;;;;;4976529;28;20174;-77
2022/05/26 04:54:42;;;;;;;4.40;3.60;;;15.90;99.90;;;;;;4974955;28;20186;-73
2022/05/26 04:57:09;;;;;;;3.63;3.30;;;15.90;99.90;;;;;;4976153;28;20507;-74
2022/05/26 04:59:35;;;;;;;10.57;3.63;;;15.90;99.90;;;;;;4976047;28;20424;-75
2022/05/26 05:02:01;;;;;;;5.77;4.37;;;15.90;99.90;;;;;;4974789;28;20963;-75
2022/05/26 05:04:27;;;;;;;4.63;3.73;;;16.00;99.90;;;;;;4975953;28;20827;-75
2022/05/26 05:06:54;;;;;;;4.37;3.97;;;16.00;99.90;;;;;;4975915;28;20512;-75
2022/05/26 05:09:21;;;;;;;6.70;4.23;;;16.00;99.90;;;;;;4975837;28;20439;-75
2022/05/26 05:11:47;;;;;;;6.13;3.90;;;15.90;99.90;;;;;;4975921;28;20844;-75
2022/05/26 05:14:13;;;;;;;7.27;3.80;;;15.90;99.90;;;;;;4975762;28;20436;-76
2022/05/26 05:16:44;;;;;;;4.37;3.83;;;15.90;99.90;;;;;;4975758;28;20778;-74
2022/05/26 05:19:11;;;;;;;7.00;4.27;;;16.00;99.90;;;;;;4975786;28;20186;-74
2022/05/26 05:21:47;;;;;;;6.20;3.63;;;16.00;99.90;;;;;;4975171;28;20456;-73
2022/05/26 05:24:39;;;;;;;5.50;4.07;;;16.00;99.90;;;;;;4975213;28;20488;-73
2022/05/26 05:27:11;;;;;;;11.37;5.63;;;16.00;99.90;;;;;;4974551;28;20448;-74
2022/05/26 05:29:39;;;;;;;8.97;5.73;;;16.00;99.90;;;;;;4975515;28;20924;-75
2022/05/26 05:32:29;;;;;;;9.30;6.27;;;16.00;99.90;;;;;;4975326;28;20560;-75
2022/05/26 05:35:02;;;;;;;7.50;6.80;;;16.10;99.90;;;;;;4975525;28;20479;-75
2022/05/26 05:37:30;;;;;;;10.47;7.47;;;16.10;99.90;;;;;;4975349;28;20818;-75
2022/05/26 05:39:56;;;;;;;12.43;10.33;;;16.00;99.90;;;;;;4975346;28;20779;-75
2022/05/26 05:42:23;;;;;;;18.40;10.30;;;16.10;99.90;;;;;;4975131;28;20432;-75
2022/05/26 05:44:49;;;;;;;14.40;10.33;;;16.10;99.90;;;;;;4975252;28;20182;-75
2022/05/26 05:47:14;;;;;;;14.77;12.37;;;16.10;99.90;;;;;;4973884;28;20924;-75
2022/05/26 05:49:40;;;;;;;12.60;11.33;;;16.10;99.90;;;;;;4975111;28;20185;-75
2022/05/26 05:52:09;;;;;;;18.27;11.87;;;16.10;99.90;;;;;;4975053;28;20181;-75
2022/05/26 05:54:36;;;;;;;20.03;14.30;;;16.00;99.90;;;;;;4974922;28;20213;-75
2022/05/26 05:57:02;;;;;;;21.50;14.03;;;16.10;99.90;;;;;;4975122;28;20421;-75
2022/05/26 05:59:27;;;;;;;23.27;13.07;;;16.10;99.90;;;;;;4974891;28;20519;-75
2022/05/26 06:01:54;;;;;;;20.13;13.30;;;16.10;99.90;;;;;;4976368;28;20166;-81
2022/05/26 06:04:19;;;;;;;21.02;14.65;;;16.10;99.90;;;;;;4973936;28;20446;-75
2022/05/26 06:06:45;;;;;;;20.83;15.43;;;16.10;99.90;;;;;;4975016;28;20518;-77
2022/05/26 06:09:16;;;;;;;17.67;13.27;;;16.10;99.90;;;;;;4975466;28;20289;-79
2022/05/26 06:11:42;;;;;;;22.87;14.50;;;16.20;99.90;;;;;;4976267;28;20170;-82
2022/05/26 06:14:08;;;;;;;20.30;13.40;;;16.10;99.90;;;;;;4980872;28;20475;-70
2022/05/26 06:16:36;;;;;;;23.53;13.97;;;16.20;99.90;;;;;;4981928;28;20425;-73
2022/05/26 06:19:02;;;;;;;20.37;13.60;;;16.20;99.90;;;;;;4980186;28;20516;-80
2022/05/26 06:21:28;;;;;;;18.40;12.93;;;16.30;99.90;;;;;;4981106;28;20421;-80
2022/05/26 06:23:56;;;;;;;17.47;12.97;;;16.30;99.90;;;;;;4973999;28;20483;-78
2022/05/26 06:26:24;;;;;;;16.93;11.70;;;16.30;99.90;;;;;;4974416;28;20177;-80
2022/05/26 06:31:34;;;;;;;18.57;13.13;;;16.30;99.90;;;;;;4973391;28;20582;-80
2022/05/26 06:39:12;;;;;;;19.43;12.20;;;16.30;99.90;;;;;;4973825;28;20476;-81
2022/05/26 06:44:23;;;;;;;15.43;11.50;;;16.40;99.90;;;;;;4974729;28;20257;-84
2022/05/26 06:46:49;;;;;;;17.53;12.50;;;16.40;99.90;;;;;;4973948;28;20959;-82
2022/05/26 06:49:15;;;;;;;18.93;13.13;;;16.40;99.90;;;;;;4973893;28;20253;-78
2022/05/26 06:51:43;;;;;;;18.73;13.40;;;16.30;99.90;;;;;;4973626;28;20629;-81
2022/05/26 06:54:09;;;;;;;24.30;16.10;;;16.40;99.90;;;;;;4973514;28;20981;-77
2022/05/26 06:56:35;;;;;;;17.30;12.57;;;16.40;99.90;;;;;;4973153;28;20492;-77
2022/05/26 06:59:00;;;;;;;17.47;12.80;;;16.50;99.90;;;;;;4973281;28;20433;-81
2022/05/26 07:01:26;;;;;;;20.23;12.57;;;16.50;99.90;;;;;;4979231;28;20192;-78
2022/05/26 07:03:51;;;;;;;18.53;15.43;;;16.70;99.90;;;;;;4989855;28;20216;-80
2022/05/26 07:06:20;;;;;;;23.07;13.30;;;16.70;99.90;;;;;;4982282;28;20224;-78
2022/05/26 07:08:47;;;;;;;19.70;13.13;;;16.70;99.90;;;;;;4980749;28;20186;-75
2022/05/26 07:11:14;;;;;;;17.57;13.33;;;16.70;99.90;;;;;;4983533;28;20506;-84
2022/05/26 07:13:40;;;;;;;22.93;15.57;;;16.60;99.90;;;;;;4980862;28;20443;-78
2022/05/26 07:16:07;;;;;;;21.53;15.43;;;16.70;99.90;;;;;;4969901;28;20487;-75
2022/05/26 07:18:33;;;;;;;24.60;16.37;;;16.70;99.90;;;;;;4965290;28;20467;-81
2022/05/26 07:21:01;;;;;;;26.80;17.07;;;16.50;99.90;;;;;;4982701;28;20933;-85
2022/05/26 07:23:27;;;;;;;21.67;14.93;;;16.60;99.90;;;;;;4988529;28;20538;-82
2022/05/26 07:25:52;;;;;;;18.17;14.80;;;16.70;99.90;;;;;;4985085;28;20429;-81
2022/05/26 07:28:18;;;;;;;23.53;15.13;;;16.70;99.90;;;;;;4983679;28;20220;-79
2022/05/26 07:30:44;;;;;;;23.90;15.60;;;16.70;99.90;;;;;;4983014;28;21398;-80
2022/05/26 07:33:09;;;;;;;25.17;16.70;;;16.80;99.90;;;;;;4971590;28;20185;-86
2022/05/26 07:35:35;;;;;;;23.90;15.37;;;16.80;99.90;;;;;;4969910;28;20182;-79
2022/05/26 07:43:35;;;;;;;24.37;15.53;;;17.00;99.90;;;;;;4973337;28;20886;-83
2022/05/26 07:46:01;;;;;;;18.27;14.03;;;17.20;99.90;;;;;;4974547;28;20478;-76
2022/05/26 07:48:27;;;;;;;17.47;14.63;;;17.30;99.90;;;;;;4976096;28;20433;-79
2022/05/26 07:50:53;;;;;;;22.90;15.73;;;17.40;99.90;;;;;;4976217;28;20959;-77
2022/05/26 07:53:18;;;;;;;22.07;14.37;;;17.40;99.90;;;;;;4976340;28;20185;-76
2022/05/26 07:55:44;;;;;;;24.23;15.40;;;17.50;99.90;;;;;;4976008;28;20645;-73
2022/05/26 07:58:11;;;;;;;18.67;14.43;;;17.50;99.90;;;;;;4975789;28;20174;-75
2022/05/26 08:00:36;;;;;;;16.90;11.83;;;17.60;99.90;;;;;;4975783;28;20174;-77
2022/05/26 08:03:03;;;;;;;20.50;13.20;;;17.70;99.90;;;;;;4975680;28;20476;-77
2022/05/26 08:05:28;;;;;;;19.60;13.67;;;17.70;99.90;;;;;;4975729;28;20533;-76
2022/05/26 08:07:54;;;;;;;18.33;14.67;;;17.80;99.90;;;;;;4975752;28;20440;-83
2022/05/26 08:10:20;;;;;;;19.23;12.03;;;17.80;99.90;;;;;;4972436;28;20178;-81
2022/05/26 08:12:46;;;;;;;28.07;11.33;;;17.90;99.90;;;;;;4976224;28;20182;-82
2022/05/26 08:15:12;;;;;;;23.77;12.20;;;18.00;99.90;;;;;;4975555;28;20174;-82
2022/05/26 08:17:38;;;;;;;16.90;12.67;;;18.20;99.90;;;;;;4976135;28;20213;-83
2022/05/26 08:20:04;;;;;;;17.40;12.57;;;18.10;99.90;;;;;;4974607;28;20441;-85
2022/05/26 08:22:30;;;;;;;16.17;12.27;;;18.10;99.90;;;;;;4975538;28;20492;-78
2022/05/26 08:24:57;;;;;;;13.70;11.47;;;18.10;99.90;;;;;;4975734;28;20438;-75
2022/05/26 08:27:24;;;;;;;17.07;12.00;;;18.00;99.90;;;;;;4975560;28;20178;-77
2022/05/26 08:29:52;;;;;;;13.03;11.47;;;18.00;99.90;;;;;;4975752;28;20425;-76
2022/05/26 08:32:19;;;;;;;15.33;9.60;;;18.00;99.90;;;;;;4975363;28;20548;-79
2022/05/26 08:34:45;;;;;;;20.73;11.17;;;18.00;99.90;;;;;;4974341;28;20440;-78
2022/05/26 08:37:15;;;;;;;12.60;11.10;;;18.00;99.90;;;;;;4975866;28;20427;-77
2022/05/26 08:39:41;;;;;;;13.50;11.83;;;18.10;99.90;;;;;;4975683;28;20433;-77
2022/05/26 08:42:15;;;;;;;16.53;11.57;;;18.00;99.90;;;;;;4975534;28;20452;-77
2022/05/26 08:44:42;;;;;;;16.80;12.07;;;18.10;99.90;;;;;;4975371;28;20441;-76
2022/05/26 08:47:14;;;;;;;16.83;12.07;;;18.20;99.90;;;;;;4975158;28;20433;-71
2022/05/26 08:49:51;;;;;;;17.90;11.70;;;18.10;99.90;;;;;;4975250;28;20460;-76
2022/05/26 08:52:22;;;;;;;18.17;13.70;;;18.10;99.90;;;;;;4975049;28;20435;-81
2022/05/26 08:54:58;;;;;;;17.10;13.73;;;18.10;99.90;;;;;;4974991;28;20517;-76
2022/05/26 08:57:53;;;;;;;16.47;12.70;;;18.00;99.90;;;;;;4974444;28;20433;-72
2022/05/26 09:00:23;;;;;;;17.00;12.57;;;18.00;99.90;;;;;;4967065;28;20433;-73
2022/05/26 09:02:54;;;;;;;16.17;13.07;;;17.90;99.90;;;;;;4974226;28;20448;-73
2022/05/26 09:05:20;;;;;;;13.10;10.93;;;17.80;99.90;;;;;;4974602;28;20433;-71
2022/05/26 09:13:43;;;;;;;16.27;10.70;;;18.00;99.90;;;;;;4974311;28;20452;-84
2022/05/26 09:16:10;;;;;;;16.27;11.73;;;18.10;99.90;;;;;;4972673;28;20469;-82
2022/05/26 09:18:36;;;;;;;13.23;11.17;;;18.20;99.90;;;;;;4974900;28;20305;-76
2022/05/26 09:21:25;;;;;;;13.60;10.50;;;18.20;99.90;;;;;;4974626;28;20800;-83
2022/05/26 09:23:52;;;;;;;16.67;8.53;;;18.20;99.90;;;;;;4972236;28;20473;-78
2022/05/26 09:26:22;;;;;;;10.50;9.37;;;18.30;99.90;;;;;;4974370;28;20791;-79
2022/05/26 09:28:51;;;;;;;12.00;9.27;;;18.20;99.90;;;;;;4974378;28;20425;-85
2022/05/26 09:31:29;;;;;;;16.80;9.63;;;18.30;99.90;;;;;;4974499;28;20520;-78
2022/05/26 09:34:06;;;;;;;11.53;8.50;;;18.50;99.90;;;;;;4973183;28;20797;-75
2022/05/26 09:36:37;;;;;;;14.03;8.90;;;18.60;99.90;;;;;;4974468;28;20440;-76
2022/05/26 09:39:03;;;;;;;22.40;8.97;;;18.70;99.90;;;;;;4973572;28;20433;-75
2022/05/26 09:41:41;;;;;;;17.40;8.97;;;18.80;99.90;;;;;;4973276;28;20432;-75
2022/05/26 09:44:38;;;;;;;13.43;8.30;;;18.80;99.90;;;;;;4973739;28;20487;-74
2022/05/26 09:47:29;;;;;;;10.17;7.17;;;18.90;99.90;;;;;;4974071;28;20425;-79
2022/05/26 09:49:58;;;;;;;10.40;7.30;;;18.80;99.90;;;;;;4973697;28;20441;-77
2022/05/26 09:52:28;;;;;;;10.60;8.00;;;18.80;99.90;;;;;;4974215;28;20952;-75
2022/05/26 09:55:08;;;;;;;8.53;7.63;;;18.90;99.90;;;;;;4973697;28;20437;-72
2022/05/26 09:57:34;;;;;;;9.57;6.60;;;19.10;99.90;;;;;;4973938;28;20425;-74
2022/05/26 10:00:00;;;;;;;11.00;7.40;;;19.20;99.90;;;;;;4974415;28;20439;-72
2022/05/26 10:02:40;;;;;;;11.57;7.87;;;19.30;99.90;;;;;;4973817;28;20228;-72
2022/05/26 10:05:27;;;;;;;9.17;6.93;;;19.40;99.90;;;;;;4974124;28;20232;-77
2022/05/26 10:08:10;;;;;;;12.73;7.70;;;19.30;99.90;;;;;;4973644;28;20429;-75
2022/05/26 10:10:59;;;;;;;14.18;6.90;;;19.30;99.90;;;;;;4972701;28;20951;-73
2022/05/26 10:13:29;;;;;;;15.40;7.50;;;19.30;99.90;;;;;;4970102;28;20244;-74
2022/05/26 10:15:54;;;;;;;11.03;8.40;;;19.30;99.90;;;;;;4972960;28;21004;-79
2022/05/26 10:18:54;;;;;;;9.13;6.70;;;19.30;99.90;;;;;;4973331;28;20540;-77
2022/05/26 10:21:46;;;;;;;12.63;7.80;;;19.40;99.90;;;;;;4972851;28;20182;-76
2022/05/26 10:24:36;;;;;;;9.80;7.33;;;19.50;99.90;;;;;;4971789;28;20516;-69
2022/05/26 10:27:26;;;;;;;8.40;6.60;;;19.70;99.90;;;;;;4973939;28;20429;-74
2022/05/26 10:30:04;;;;;;;10.70;6.47;;;19.60;99.90;;;;;;4973319;28;20881;-76
2022/05/26 10:32:54;;;;;;;9.50;6.47;;;19.50;99.90;;;;;;4972744;28;20912;-73
2022/05/26 10:35:23;;;;;;;13.80;6.63;;;19.50;99.90;;;;;;4973984;28;20445;-73
2022/05/26 10:38:14;;;;;;;6.50;5.63;;;19.30;99.90;;;;;;4954648;28;20960;-73
2022/05/26 10:41:03;;;;;;;8.97;5.37;;;19.40;99.90;;;;;;4949987;28;20473;-72
2022/05/26 10:43:52;;;;;;;10.43;5.73;;;19.50;99.90;;;;;;4954895;28;20488;-72
2022/05/26 10:46:19;;;;;;;5.60;4.53;;;19.70;99.90;;;;;;4955025;28;20471;-72
2022/05/26 10:49:03;;;;;;;9.23;5.60;;;19.70;99.90;;;;;;4954889;28;20430;-72
2022/05/26 10:51:45;;;;;;;7.63;5.03;;;19.70;99.90;;;;;;4954696;28;20425;-72
2022/05/26 10:54:15;;;;;;;6.60;5.63;;;19.60;99.90;;;;;;4954806;28;20436;-73
2022/05/26 10:56:58;;;;;;;12.17;5.60;;;19.60;99.90;;;;;;4954959;28;20421;-73
2022/05/26 10:59:37;;;;;;;7.67;5.40;;;19.60;99.90;;;;;;4969972;28;20971;-72
2022/05/26 11:02:16;;;;;;;9.87;5.27;;;19.50;99.90;;;;;;4954952;28;20504;-73
2022/05/26 11:04:41;;;;;;;7.27;5.50;;;19.50;99.90;;;;;;4954796;28;20449;-73
2022/05/26 11:07:17;;;;;;;7.33;4.53;;;19.40;99.90;;;;;;4954803;28;20960;-73
2022/05/26 11:10:00;;;;;;;5.37;4.77;;;19.40;99.90;;;;;;4954893;28;20182;-73
2022/05/26 11:12:36;;;;;;;4.00;3.60;;;19.50;99.90;;;;;;4954716;28;20867;-72
2022/05/26 11:18:07;;;;;;;8.97;4.63;;;19.80;99.90;;;;;;4954999;28;20915;-72
2022/05/26 11:20:39;;;;;;;8.80;4.37;;;20.00;99.90;;;;;;4956800;28;20442;-72
2022/05/26 11:23:06;;;;;;;4.93;4.27;;;20.10;99.90;;;;;;4958350;28;20500;-72
2022/05/26 11:25:38;;;;;;;5.70;4.90;;;20.10;99.90;;;;;;4958335;28;20441;-72
2022/05/26 11:28:11;;;;;;;7.60;3.90;;;20.10;99.90;;;;;;4958535;28;20422;-72
2022/05/26 11:36:34;;;;;;;7.93;5.00;;;19.90;99.90;;;;;;4958237;28;20914;-73
2022/05/26 11:39:01;;;;;;;4.80;4.10;;;19.70;99.90;;;;;;4958116;28;20429;-72
2022/05/26 11:41:52;;;;;;;6.20;4.07;;;19.70;99.90;;;;;;4956535;28;20589;-72
2022/05/26 11:44:38;;;;;;;11.20;3.70;;;19.60;99.90;;;;;;4957767;28;20485;-72
2022/05/26 11:47:26;;;;;;;8.53;3.90;;;19.60;99.90;;;;;;4958009;28;20425;-72
2022/05/26 11:49:51;;;;;;;6.50;4.10;;;19.50;99.90;;;;;;4957896;28;20537;-72
2022/05/26 11:52:25;;;;;;;6.90;4.10;;;19.60;99.90;;;;;;4957970;28;20490;-72
2022/05/26 11:54:58;;;;;;;9.70;4.10;;;19.60;99.90;;;;;;4957941;28;20664;-73
2022/05/26 11:57:34;;;;;;;8.90;4.20;;;19.70;99.90;;;;;;4957612;28;20426;-73
2022/05/26 12:00:17;;;;;;;4.60;3.87;;;19.60;99.90;;;;;;4957873;28;20433;-73
2022/05/26 12:02:45;;;;;;;13.83;4.70;;;19.40;99.90;;;;;;4957622;28;20488;-73
2022/05/26 12:05:28;;;;;;;6.63;4.33;;;19.40;99.90;;;;;;4957530;28;20434;-73
2022/05/26 12:08:00;;;;;;;7.73;3.63;;;19.50;99.90;;;;;;4957749;28;20751;-73
2022/05/26 12:10:38;;;;;;;9.50;3.87;;;19.50;99.90;;;;;;4957517;28;20433;-73
2022/05/26 12:13:19;;;;;;;7.83;3.80;;;19.50;99.90;;;;;;4957554;28;20436;-73
2022/05/26 12:16:06;;;;;;;4.80;4.30;;;19.60;99.90;;;;;;4957541;28;20957;-73
2022/05/26 12:18:46;;;;;;;7.87;4.33;;;19.70;99.90;;;;;;4957383;28;20432;-72
2022/05/26 12:21:33;;;;;;;5.90;4.17;;;19.80;99.90;;;;;;4957408;28;20461;-72
2022/05/26 12:24:35;;;;;;;8.70;3.73;;;20.00;99.90;;;;;;4957361;28;20477;-72
2022/05/26 12:27:01;;;;;;;9.33;4.50;;;20.20;99.90;;;;;;4957215;28;20426;-72
2022/05/26 12:29:45;;;;;;;8.77;4.10;;;20.50;99.90;;;;;;4957237;28;20505;-72
2022/05/26 12:32:21;;;;;;;7.27;4.13;;;20.50;99.90;;;;;;4956453;28;20492;-72
2022/05/26 12:34:53;;;;;;;8.73;4.73;;;20.60;99.90;;;;;;4955930;28;20468;-72
2022/05/26 12:37:42;;;;;;;6.87;3.67;;;20.70;99.90;;;;;;4957106;28;20418;-72
2022/05/26 12:40:27;;;;;;;9.90;4.47;;;20.80;99.90;;;;;;4957274;28;20414;-72
2022/05/26 12:43:36;;;;;;;5.07;4.03;;;20.90;99.90;;;;;;4946062;28;20457;-72
2022/05/26 12:46:17;;;;;;;7.57;4.30;;;21.20;99.90;;;;;;4956883;28;20422;-72
2022/05/26 12:49:04;;;;;;;8.97;4.60;;;21.30;99.90;;;;;;4956971;28;20437;-72
2022/05/26 12:51:37;;;;;;;5.23;3.73;;;21.20;99.60;;;;;;4957012;28;20653;-72
2022/05/26 12:54:08;;;;;;;5.47;4.00;;;21.40;99.90;;;;;;4956874;28;20426;-72
2022/05/26 12:56:36;;;;;;;6.73;4.57;;;21.20;98.50;;;;;;4956864;28;20427;-72
2022/05/26 12:59:03;;;;;;;8.43;4.40;;;21.20;98.80;;;;;;4956810;28;20426;-72
2022/05/26 13:01:30;;;;;;;10.17;4.90;;;21.30;99.90;;;;;;4956716;28;20896;-72
2022/05/26 13:04:19;;;;;;;5.97;4.33;;;21.50;99.90;;;;;;4956542;28;20478;-72
2022/05/26 13:06:49;;;;;;;5.80;4.20;;;21.60;99.90;;;;;;4956672;28;20426;-72
2022/05/26 13:09:25;;;;;;;6.20;3.80;;;21.70;98.70;;;;;;4956539;28;20435;-72
2022/05/26 13:11:56;;;;;;;7.23;4.17;;;21.70;99.90;;;;;;4956406;28;20472;-72
2022/05/26 13:14:41;;;;;;;5.97;3.47;;;21.60;99.10;;;;;;4956419;28;20436;-72
2022/05/26 13:17:16;;;;;;;4.43;3.87;;;21.50;99.90;;;;;;4956390;28;20429;-72
2022/05/26 13:19:47;;;;;;;4.93;4.20;;;21.40;98.40;;;;;;4956288;28;20465;-72
2022/05/26 13:22:28;;;;;;;6.13;3.47;;;21.30;98.80;;;;;;4956223;28;20493;-72
2022/05/26 13:25:00;;;;;;;6.00;4.13;;;21.10;98.90;;;;;;4956393;28;20453;-72
2022/05/26 13:27:38;;;;;;;6.03;4.57;;;21.20;98.10;;;;;;4956242;28;20453;-72
2022/05/26 13:35:37;;;;;;;5.10;2.93;;;21.30;98.00;;;;;;4956162;28;20572;-72
2022/05/26 13:38:03;;;;;;;5.73;3.73;;;21.20;98.60;;;;;;4956137;28;20426;-72
2022/05/26 13:40:29;;;;;;;5.97;3.47;;;21.10;99.80;;;;;;4955939;28;20422;-72
2022/05/26 13:42:55;;;;;;;5.80;2.70;;;21.10;99.90;;;;;;4955174;28;20206;-72
2022/05/26 13:45:27;;;;;;;12.70;4.00;;;21.10;99.90;;;;;;4955944;28;20441;-72
2022/05/26 13:48:27;;;;;;;6.60;2.87;;;21.10;99.90;;;;;;4955893;28;20433;-72
2022/05/26 13:50:56;;;;;;;5.93;3.20;;;21.10;99.90;;;;;;4955790;28;20466;-72
2022/05/26 13:53:22;;;;;;;6.97;3.50;;;21.20;99.90;;;;;;4955674;28;20422;-72
2022/05/26 13:55:50;;;;;;;6.57;3.70;;;21.40;99.90;;;;;;4955775;28;20517;-72
2022/05/26 13:58:18;;;;;;;4.93;3.37;;;21.60;99.60;;;;;;4955655;28;20178;-72
2022/05/26 14:00:44;;;;;;;7.00;3.80;;;21.80;97.80;;;;;;4955654;28;20419;-72
2022/05/26 14:03:24;;;;;;;7.60;3.70;;;21.70;98.50;;;;;;4955434;28;20462;-72
2022/05/26 14:06:06;;;;;;;7.03;3.70;;;21.80;97.10;;;;;;4955624;28;20557;-72
2022/05/26 14:08:33;;;;;;;7.73;3.57;;;21.80;97.80;;;;;;4955450;28;20459;-72
2022/05/26 14:10:59;;;;;;;4.90;3.37;;;21.80;97.10;;;;;;4955478;28;20422;-72
2022/05/26 14:13:30;;;;;;;6.27;3.33;;;21.70;97.00;;;;;;4955555;28;20441;-72
2022/05/26 14:16:05;;;;;;;5.80;3.40;;;21.50;97.30;;;;;;4955434;28;20437;-72
2022/05/26 14:18:43;;;;;;;6.87;3.90;;;21.40;97.80;;;;;;4955268;28;20462;-72
2022/05/26 14:21:12;;;;;;;4.07;3.30;;;21.30;98.80;;;;;;4955245;28;20422;-72
2022/05/26 14:24:04;;;;;;;5.40;4.57;;;21.20;99.90;;;;;;4955159;28;20858;-72
2022/05/26 14:26:41;;;;;;;7.70;3.80;;;21.10;99.90;;;;;;4944224;28;20854;-72
2022/05/26 14:29:15;;;;;;;6.20;3.00;;;21.00;99.80;;;;;;4955186;28;20444;-72
2022/05/26 14:31:58;;;;;;;6.93;2.97;;;20.80;99.90;;;;;;4955030;28;20464;-73
2022/05/26 14:34:34;;;;;;;7.77;2.87;;;20.70;99.90;;;;;;4955123;28;20434;-72
2022/05/26 14:37:00;;;;;;;4.43;3.60;;;20.70;99.90;;;;;;4955152;28;20829;-72
2022/05/26 14:39:26;;;;;;;5.43;3.27;;;20.70;99.90;;;;;;4955050;28;20561;-72
2022/05/26 14:41:57;;;;;;;4.00;2.90;;;20.70;99.90;;;;;;4955043;28;20930;-73
2022/05/26 14:44:23;;;;;;;8.00;4.23;;;20.70;99.90;;;;;;4954918;28;20533;-72
2022/05/26 14:46:48;;;;;;;3.87;3.37;;;20.60;99.90;;;;;;4954966;28;20836;-72
2022/05/26 14:49:14;;;;;;;8.03;3.80;;;20.60;99.90;;;;;;4954906;28;20257;-72
2022/05/26 14:51:43;;;;;;;9.90;3.23;;;20.50;99.90;;;;;;4954827;28;20178;-73
2022/05/26 14:56:56;;;;;;;3.43;3.03;;;20.50;99.90;;;;;;4955219;28;20481;-72
2022/05/26 14:59:22;;;;;;;4.53;3.70;;;20.50;99.90;;;;;;4954846;28;20448;-72
2022/05/26 15:01:48;;;;;;;6.00;3.10;;;20.60;99.90;;;;;;4954814;28;20801;-72
2022/05/26 15:04:13;;;;;;;5.90;3.13;;;20.60;99.90;;;;;;4954682;28;20509;-72
2022/05/26 15:06:42;;;;;;;7.63;3.43;;;20.60;99.90;;;;;;4954816;28;20230;-72
2022/05/26 15:09:17;;;;;;;10.37;3.67;;;20.60;99.90;;;;;;4954820;28;20178;-73
2022/05/26 15:11:43;;;;;;;5.33;2.90;;;20.60;99.90;;;;;;4954926;28;20448;-72
2022/05/26 15:14:09;;;;;;;6.93;2.80;;;20.60;99.90;;;;;;4954746;28;20906;-72
2022/05/26 15:16:36;;;;;;;7.87;3.47;;;20.70;99.90;;;;;;4954717;28;20304;-72
2022/05/26 15:19:05;;;;;;;5.23;3.33;;;20.70;99.90;;;;;;4954772;28;20242;-72
2022/05/26 15:21:31;;;;;;;8.93;3.00;;;20.70;99.90;;;;;;4953389;28;20804;-72
2022/05/26 15:23:57;;;;;;;4.23;3.63;;;20.80;99.90;;;;;;4954503;28;20576;-73
2022/05/26 15:26:24;;;;;;;3.00;2.67;;;20.70;99.90;;;;;;4954628;28;20182;-72
2022/05/26 15:28:53;;;;;;;4.10;3.00;;;20.60;99.90;;;;;;4954522;28;20240;-72
2022/05/26 15:31:19;;;;;;;4.10;3.70;;;20.60;99.90;;;;;;4954313;28;20478;-72
2022/05/26 15:33:45;;;;;;;3.27;2.60;;;20.60;99.90;;;;;;4954665;28;20438;-72
2022/05/26 15:36:12;;;;;;;5.00;2.70;;;20.60;99.90;;;;;;4954448;28;20977;-72
2022/05/26 15:38:43;;;;;;;6.90;3.20;;;20.60;99.90;;;;;;4954436;28;20241;-72
2022/05/26 15:41:10;;;;;;;5.77;2.87;;;20.60;99.90;;;;;;4954517;28;20441;-72
2022/05/26 15:43:36;;;;;;;5.60;3.20;;;20.60;99.90;;;;;;4954374;28;20862;-72
2022/05/26 15:46:07;;;;;;;8.10;3.00;;;20.60;99.90;;;;;;4954590;28;20442;-72
2022/05/26 15:48:32;;;;;;;9.20;3.67;;;20.70;99.90;;;;;;4954469;28;20850;-72
2022/05/26 15:50:58;;;;;;;4.47;3.17;;;20.70;99.90;;;;;;4954434;28;20438;-72
2022/05/26 15:53:29;;;;;;;3.73;3.13;;;20.70;99.90;;;;;;4954316;28;20182;-72
2022/05/26 15:55:56;;;;;;;9.53;4.20;;;20.80;99.90;;;;;;4954462;28;20434;-72
2022/05/26 15:58:25;;;;;;;5.53;2.90;;;20.80;99.90;;;;;;4954304;28;20434;-72
2022/05/26 16:00:53;;;;;;;3.93;2.87;;;20.90;99.90;;;;;;4954373;28;20418;-72
2022/05/26 16:03:19;;;;;;;12.60;3.63;;;20.90;99.90;;;;;;4954137;28;20477;-72
2022/05/26 16:05:45;;;;;;;3.23;2.90;;;20.80;99.90;;;;;;4954232;28;20438;-72
2022/05/26 16:08:11;;;;;;;5.30;2.93;;;20.80;99.90;;;;;;4957208;28;20518;-72
2022/05/26 16:10:37;;;;;;;3.90;3.27;;;20.80;99.90;;;;;;4957716;28;20887;-72
2022/05/26 16:13:03;;;;;;;7.33;3.60;;;20.70;99.90;;;;;;4957675;28;20202;-72
2022/05/26 16:15:29;;;;;;;7.47;3.00;;;20.70;99.90;;;;;;4957499;28;20537;-72
2022/05/26 16:17:56;;;;;;;4.10;2.87;;;20.60;99.90;;;;;;4957540;28;20422;-72
2022/05/26 16:20:22;;;;;;;6.00;3.00;;;20.70;99.90;;;;;;4957365;28;20225;-72
2022/05/26 16:22:54;;;;;;;7.00;2.93;;;20.70;99.90;;;;;;4957251;28;20548;-72
2022/05/26 16:25:22;;;;;;;7.07;2.80;;;20.70;99.90;;;;;;4957289;28;20434;-72
2022/05/26 16:27:48;;;;;;;3.33;2.33;;;20.60;99.90;;;;;;4957320;28;20430;-72
2022/05/26 16:30:19;;;;;;;4.03;3.27;;;20.60;99.90;;;;;;4957030;28;20952;-72
2022/05/26 16:32:45;;;;;;;4.93;3.13;;;20.70;99.90;;;;;;4957254;28;20450;-72
2022/05/26 16:38:00;;;;;;;3.30;2.37;;;20.60;99.90;;;;;;4957402;29;20475;-72
2022/05/26 16:40:27;;;;;;;4.40;2.90;;;20.60;99.90;;;;;;4956860;28;20964;-72
2022/05/26 16:42:53;;;;;;;6.27;2.87;;;20.60;99.90;;;;;;4956926;28;20458;-72
2022/05/26 16:45:19;;;;;;;6.23;2.70;;;20.50;99.90;;;;;;4956827;28;20472;-73
2022/05/26 16:47:45;;;;;;;4.20;2.70;;;20.60;99.90;;;;;;4956922;28;20785;-73
2022/05/26 16:50:11;;;;;;;3.80;2.70;;;20.60;99.90;;;;;;4956883;28;20815;-73
2022/05/26 16:52:38;;;;;;;11.33;3.00;;;20.50;99.90;;;;;;4956443;28;20588;-70
2022/05/26 16:55:06;;;;;;;4.83;2.87;;;20.50;99.90;;;;;;4955407;28;20178;-73
2022/05/26 16:57:32;;;;;;;3.23;2.37;;;20.40;99.90;;;;;;4955738;28;20418;-74
2022/05/26 16:59:57;;;;;;;4.60;2.73;;;20.40;99.90;;;;;;4955886;28;20586;-71
2022/05/26 17:02:23;;;;;;;5.07;3.50;;;20.40;99.90;;;;;;4955555;28;20173;-70
2022/05/26 17:04:49;;;;;;;5.90;2.53;;;20.40;99.90;;;;;;4955554;28;20214;-75
2022/05/26 17:07:14;;;;;;;4.33;2.57;;;20.50;99.90;;;;;;4955601;28;20896;-73
2022/05/26 17:09:40;;;;;;;3.63;3.23;;;20.60;99.90;;;;;;4955481;28;20177;-74
2022/05/26 17:12:06;;;;;;;4.97;3.00;;;20.60;99.90;;;;;;4955573;28;20189;-74
2022/05/26 17:22:45;;;;;;;6.30;2.70;;;20.30;99.90;;;;;;4971034;28;20431;-75
2022/05/26 17:25:11;;;;;;;3.60;2.83;;;20.40;99.90;;;;;;4973256;28;20433;-74
2022/05/26 17:27:46;;;;;;;3.03;2.40;;;20.30;99.90;;;;;;4972691;28;20227;-74
2022/05/26 17:30:15;;;;;;;4.63;2.83;;;20.30;99.90;;;;;;4973230;28;20620;-74
2022/05/26 17:32:42;;;;;;;3.93;2.47;;;20.30;99.90;;;;;;4972912;28;20826;-75
2022/05/26 17:35:07;;;;;;;7.20;3.60;;;20.20;99.90;;;;;;4973438;28;20449;-75
2022/05/26 17:37:33;;;;;;;8.47;2.70;;;20.20;99.90;;;;;;4974327;28;21023;-75
2022/05/26 17:39:59;;;;;;;4.03;2.50;;;20.20;99.90;;;;;;4974231;28;20433;-74
2022/05/26 17:42:25;;;;;;;5.00;2.80;;;20.20;99.90;;;;;;4974106;28;20185;-74
2022/05/26 17:44:50;;;;;;;4.70;2.17;;;20.20;99.90;;;;;;4973944;28;20473;-76
2022/05/26 17:47:17;;;;;;;6.80;3.20;;;20.10;99.90;;;;;;4973598;28;20543;-75
2022/05/26 17:49:42;;;;;;;5.63;3.20;;;20.10;99.90;;;;;;4972451;28;20227;-75
2022/05/26 17:52:17;;;;;;;5.07;3.50;;;20.10;99.90;;;;;;4973665;28;20921;-76
2022/05/26 17:54:49;;;;;;;5.87;2.63;;;20.00;99.90;;;;;;4973805;28;20170;-75
2022/05/26 17:57:14;;;;;;;5.77;2.50;;;19.90;99.90;;;;;;4973695;28;20507;-78
2022/05/26 18:02:26;;;;;;;6.53;2.83;;;19.90;99.90;;;;;;4972140;28;20646;-75
2022/05/26 18:04:52;;;;;;;3.43;2.40;;;19.90;99.90;;;;;;4972805;28;20477;-73
2022/05/26 18:07:18;;;;;;;6.10;2.90;;;19.90;99.90;;;;;;4973094;28;20425;-71
2022/05/26 18:09:44;;;;;;;5.30;2.63;;;20.00;99.90;;;;;;4973380;28;20441;-74
2022/05/26 18:12:10;;;;;;;7.20;2.80;;;20.00;99.90;;;;;;4973044;28;20417;-79
2022/05/26 18:14:38;;;;;;;6.80;3.23;;;19.90;99.90;;;;;;4973405;28;20182;-74
2022/05/26 18:17:09;;;;;;;6.23;2.80;;;19.90;99.90;;;;;;4973737;28;20200;-74
2022/05/26 18:19:44;;;;;;;7.53;2.90;;;19.90;99.90;;;;;;4973457;28;20492;-78
2022/05/26 18:22:14;;;;;;;9.90;2.87;;;19.90;99.90;;;;;;4972049;28;20459;-67